Time;durP1;ratioP1;P1;durP2;ratioP2;P2;SDS_P1;SDS_P2;PMS_P1;PMS_P2;Temp;Humidity;BMP_temperature;BMP_pressure;BME280_temperature;BME280_humidity;BME280_pressure;Samples;Min_cycle;Max_cycle;Signal;HPM_P1;HPM_P2
2022/11/10 00:00:24;;;;;;;29.43;5.63;;;;;;;15.45;100.00;101498.38;4987265;28;20263;-46
2022/11/10 00:03:09;;;;;;;26.27;6.33;;;;;;;14.79;100.00;101489.34;4987338;28;20337;-49
2022/11/10 00:05:54;;;;;;;15.57;4.93;;;;;;;14.76;100.00;101490.63;4986235;28;20299;-49
2022/11/10 00:08:38;;;;;;;19.77;5.33;;;;;;;15.09;100.00;101490.78;4990419;28;20256;-47
2022/11/10 00:11:23;;;;;;;28.23;5.30;;;;;;;15.47;100.00;101496.28;4988809;28;20264;-50
2022/11/10 00:17:11;;;;;;;29.10;5.87;;;;;;;15.69;100.00;101498.69;4989662;28;20269;-48
2022/11/10 00:19:56;;;;;;;26.80;5.37;;;;;;;15.42;100.00;101493.41;4991570;28;20271;-47
2022/11/10 00:22:41;;;;;;;14.33;4.43;;;;;;;15.56;100.00;101506.81;4985693;28;20295;-50
2022/11/10 00:25:30;;;;;;;20.93;6.27;;;;;;;15.28;100.00;101513.31;4991561;28;20308;-48
2022/11/10 00:28:14;;;;;;;28.07;8.00;;;;;;;15.56;100.00;101509.50;4985795;28;20275;-49
2022/11/10 00:31:04;;;;;;;22.33;5.07;;;;;;;16.12;100.00;101518.03;4984634;28;20272;-46
2022/11/10 00:33:48;;;;;;;22.57;6.10;;;;;;;15.57;100.00;101508.47;4990377;28;20292;-47
2022/11/10 00:36:33;;;;;;;24.50;5.83;;;;;;;15.78;100.00;101510.88;4989871;28;20288;-48
2022/11/10 00:39:18;;;;;;;27.20;5.77;;;;;;;15.70;100.00;101502.22;4984385;28;20280;-51
2022/11/10 00:42:03;;;;;;;23.07;6.23;;;;;;;15.77;100.00;101508.41;4981252;28;20273;-47
2022/11/10 00:44:47;;;;;;;27.63;6.50;;;;;;;15.72;100.00;101510.94;4987534;28;20292;-52
2022/11/10 00:47:31;;;;;;;31.27;6.30;;;;;;;15.63;100.00;101508.47;4981563;28;20276;-52
2022/11/10 00:50:15;;;;;;;33.67;6.87;;;;;;;15.39;100.00;101515.38;4978345;28;20276;-47
2022/11/10 00:53:00;;;;;;;30.57;6.10;;;;;;;15.18;100.00;101511.91;4991889;28;20337;-46
2022/11/10 00:55:44;;;;;;;24.83;7.10;;;;;;;15.27;100.00;101514.38;4989611;28;20275;-49
2022/11/10 00:58:28;;;;;;;34.57;6.67;;;;;;;15.14;100.00;101528.69;4991721;28;20267;-49
2022/11/10 01:01:13;;;;;;;25.43;5.70;;;;;;;15.33;100.00;101532.38;4985912;28;20315;-51
2022/11/10 01:03:57;;;;;;;22.93;5.90;;;;;;;15.59;100.00;101528.81;4988464;28;20292;-49
2022/11/10 01:06:42;;;;;;;25.07;6.30;;;;;;;15.80;100.00;101536.81;4985006;28;20320;-48
2022/11/10 01:09:27;;;;;;;24.80;6.53;;;;;;;15.24;100.00;101539.88;4992979;28;20272;-52
2022/11/10 01:12:13;;;;;;;26.43;5.93;;;;;;;15.57;100.00;101544.34;4993418;28;20272;-53
2022/11/10 01:14:58;;;;;;;18.77;5.17;;;;;;;15.56;100.00;101555.34;4987478;28;20272;-52
2022/11/10 01:17:42;;;;;;;33.80;6.33;;;;;;;15.27;100.00;101558.31;4990326;28;20292;-50
2022/11/10 01:20:26;;;;;;;25.23;6.50;;;;;;;15.32;100.00;101563.06;4985323;28;20284;-50
2022/11/10 01:23:10;;;;;;;28.30;6.77;;;;;;;15.20;100.00;101554.78;4987282;28;20310;-48
2022/11/10 01:25:58;;;;;;;26.30;5.43;;;;;;;15.16;100.00;101550.84;4984697;28;20308;-49
2022/11/10 01:28:42;;;;;;;27.57;6.43;;;;;;;15.12;100.00;101565.78;4992247;28;20355;-52
2022/11/10 01:31:27;;;;;;;30.97;6.67;;;;;;;15.11;100.00;101570.34;4988002;28;20362;-46
2022/11/10 01:34:12;;;;;;;23.40;6.10;;;;;;;14.21;100.00;101563.38;4992586;28;20318;-50
2022/11/10 01:36:57;;;;;;;23.77;6.50;;;;;;;14.61;100.00;101565.31;4988975;28;20356;-53
2022/11/10 01:39:42;;;;;;;21.23;5.57;;;;;;;14.76;100.00;101563.31;4989933;28;20268;-48
2022/11/10 01:42:37;;;;;;;31.97;6.37;;;;;;;14.87;100.00;101556.44;4983068;28;20259;-50
2022/11/10 01:45:21;;;;;;;36.07;6.53;;;;;;;14.83;100.00;101567.84;4984649;28;20289;-49
2022/11/10 01:48:07;;;;;;;33.73;7.20;;;;;;;14.42;100.00;101570.44;4982474;28;20272;-48
2022/11/10 01:50:53;;;;;;;27.00;5.37;;;;;;;14.54;100.00;101562.59;4985098;28;20278;-50
2022/11/10 01:53:43;;;;;;;34.70;7.93;;;;;;;14.31;100.00;101547.66;4987082;28;20287;-52
2022/11/10 01:56:30;;;;;;;24.50;6.13;;;;;;;14.10;100.00;101553.16;4990965;28;20272;-50
2022/11/10 01:59:20;;;;;;;25.40;5.53;;;;;;;14.51;100.00;101554.09;4993988;28;20294;-50
2022/11/10 02:02:26;;;;;;;29.60;6.40;;;;;;;14.59;100.00;101568.19;4992406;28;20264;-46
2022/11/10 02:05:11;;;;;;;35.30;7.80;;;;;;;14.57;100.00;101581.03;4986992;28;20295;-48
2022/11/10 02:07:55;;;;;;;23.67;5.33;;;;;;;14.43;100.00;101566.72;4981298;28;20360;-48
2022/11/10 02:10:40;;;;;;;32.57;6.30;;;;;;;14.64;100.00;101583.75;4997247;28;20271;-46
2022/11/10 02:13:24;;;;;;;27.33;6.30;;;;;;;14.73;100.00;101593.31;4988122;28;20268;-49
2022/11/10 02:16:10;;;;;;;19.90;5.90;;;;;;;14.80;100.00;101589.81;4990369;28;20272;-46
2022/11/10 02:18:54;;;;;;;21.87;5.17;;;;;;;15.11;100.00;101589.22;4990304;28;20405;-48
2022/11/10 02:21:38;;;;;;;24.30;6.20;;;;;;;14.91;100.00;101602.66;4986738;28;20339;-48
2022/11/10 02:24:23;;;;;;;31.33;6.73;;;;;;;15.13;100.00;101594.38;4988074;28;20325;-54
2022/11/10 02:27:07;;;;;;;27.47;5.70;;;;;;;14.77;100.00;101607.19;4987435;28;20275;-47
2022/11/10 02:29:51;;;;;;;32.43;6.80;;;;;;;14.57;100.00;101620.59;4989111;28;20263;-47
2022/11/10 02:32:35;;;;;;;29.47;6.30;;;;;;;14.57;100.00;101605.25;4989887;28;20367;-49
2022/11/10 02:35:20;;;;;;;24.20;5.70;;;;;;;14.26;100.00;101608.47;4985272;28;20276;-52
2022/11/10 02:38:05;;;;;;;23.63;5.03;;;;;;;14.32;100.00;101611.19;4983269;28;20280;-51
2022/11/10 02:40:49;;;;;;;24.00;5.30;;;;;;;14.58;100.00;101612.31;4991624;28;20272;-47
2022/11/10 02:43:34;;;;;;;30.07;6.27;;;;;;;14.88;100.00;101621.91;4985888;28;20317;-53
2022/11/10 02:46:18;;;;;;;34.37;5.23;;;;;;;14.54;100.00;101623.69;4987600;28;20322;-48
2022/11/10 02:49:03;;;;;;;25.43;5.13;;;;;;;14.53;100.00;101630.09;4985415;28;20273;-52
2022/11/10 02:51:47;;;;;;;31.53;6.57;;;;;;;14.35;100.00;101634.19;4987613;28;20359;-52
2022/11/10 02:54:31;;;;;;;31.40;6.27;;;;;;;14.61;100.00;101627.22;4981474;28;20329;-51
2022/11/10 02:57:15;;;;;;;32.80;6.60;;;;;;;14.56;100.00;101622.44;4988594;28;20294;-51
2022/11/10 02:59:59;;;;;;;24.27;5.50;;;;;;;14.58;100.00;101620.38;4997999;28;20268;-52
2022/11/10 03:02:45;;;;;;;33.20;7.47;;;;;;;14.64;100.00;101621.44;4991996;28;20264;-49
2022/11/10 03:05:30;;;;;;;31.63;6.67;;;;;;;14.54;100.00;101624.50;4997284;28;20304;-50
2022/11/10 03:08:14;;;;;;;25.03;5.67;;;;;;;14.36;100.00;101630.47;4992010;28;20286;-48
2022/11/10 03:10:59;;;;;;;21.10;5.67;;;;;;;14.43;100.00;101636.69;4998114;28;20341;-52
2022/11/10 03:13:43;;;;;;;30.50;5.57;;;;;;;14.51;100.00;101654.53;4987651;28;20275;-49
2022/11/10 03:16:27;;;;;;;38.47;6.50;;;;;;;14.43;100.00;101643.94;4988549;28;20269;-49
2022/11/10 03:19:11;;;;;;;32.20;5.90;;;;;;;14.22;100.00;101653.78;4994146;28;20291;-49
2022/11/10 03:21:56;;;;;;;23.27;5.30;;;;;;;14.32;100.00;101658.81;4992030;28;20264;-49
2022/11/10 03:24:41;;;;;;;27.23;6.70;;;;;;;14.16;100.00;101657.25;4995262;28;20290;-50
2022/11/10 03:27:25;;;;;;;31.00;6.73;;;;;;;14.01;100.00;101658.25;4991389;28;20259;-48
2022/11/10 03:30:09;;;;;;;24.00;5.93;;;;;;;14.15;100.00;101652.91;4988961;28;20295;-51
2022/11/10 03:32:54;;;;;;;22.10;6.70;;;;;;;13.83;100.00;101652.53;4995432;28;20290;-50
2022/11/10 03:35:38;;;;;;;28.77;6.63;;;;;;;13.73;100.00;101651.03;4990956;28;20285;-48
2022/11/10 03:38:22;;;;;;;35.53;7.07;;;;;;;13.83;100.00;101652.53;4991268;28;20268;-51
2022/11/10 03:41:07;;;;;;;32.33;6.50;;;;;;;13.88;100.00;101671.59;4994054;28;20284;-48
2022/11/10 03:43:51;;;;;;;34.60;6.37;;;;;;;13.92;100.00;101667.47;4997762;28;20260;-52
2022/11/10 03:46:36;;;;;;;37.87;6.57;;;;;;;14.02;100.00;101677.88;4989188;28;20284;-52
2022/11/10 03:49:20;;;;;;;20.10;6.00;;;;;;;13.77;100.00;101683.72;4995725;28;20264;-53
2022/11/10 03:52:04;;;;;;;32.60;6.37;;;;;;;13.85;100.00;101680.06;4994937;28;20280;-53
2022/11/10 03:54:48;;;;;;;38.60;6.13;;;;;;;13.80;100.00;101677.94;4985266;28;20291;-52
2022/11/10 03:57:33;;;;;;;31.63;8.30;;;;;;;14.16;100.00;101689.53;4989443;28;20296;-52
2022/11/10 04:00:18;;;;;;;27.67;6.43;;;;;;;13.73;100.00;101695.91;4996124;28;20279;-52
2022/11/10 04:03:02;;;;;;;22.97;5.17;;;;;;;13.71;100.00;101693.38;4997530;28;20311;-51
2022/11/10 04:08:59;;;;;;;25.73;5.90;;;;;;;13.94;100.00;101718.38;4995481;28;20323;-52
2022/11/10 04:17:50;;;;;;;26.43;5.37;;;;;;;14.38;100.00;101752.19;4987822;28;20295;-52
2022/11/10 04:20:34;;;;;;;21.07;5.23;;;;;;;14.05;100.00;101752.78;5013900;28;20268;-48
2022/11/10 04:23:26;;;;;;;32.80;7.13;;;;;;;14.06;100.00;101754.44;4985998;28;20324;-49
2022/11/10 04:26:37;;;;;;;25.40;6.33;;;;;;;13.83;100.00;101750.13;4993435;28;20287;-48
2022/11/10 04:29:18;;;;;;;39.97;5.20;;;;;;;13.88;100.00;101754.94;4992151;28;20296;-52
2022/11/10 04:32:03;;;;;;;29.57;5.20;;;;;;;13.58;100.00;101761.31;4986118;28;20260;-50
2022/11/10 04:34:48;;;;;;;33.93;6.40;;;;;;;14.18;100.00;101763.66;4992475;28;20279;-46
2022/11/10 04:37:33;;;;;;;22.27;5.23;;;;;;;14.04;100.00;101767.25;4990873;28;20268;-48
2022/11/10 04:40:17;;;;;;;21.30;5.87;;;;;;;14.20;100.00;101779.59;4989277;28;20282;-49
2022/11/10 04:43:01;;;;;;;27.07;4.50;;;;;;;13.98;100.00;101778.81;4993094;28;20303;-48
2022/11/10 04:45:45;;;;;;;26.47;5.73;;;;;;;13.96;100.00;101781.72;4991120;28;20292;-50
2022/11/10 04:48:31;;;;;;;21.63;6.97;;;;;;;13.55;100.00;101793.13;4991407;28;20268;-50
2022/11/10 04:51:17;;;;;;;14.47;4.50;;;;;;;14.09;100.00;101789.03;4988493;28;20259;-51
2022/11/10 04:54:03;;;;;;;28.87;5.00;;;;;;;14.22;100.00;101796.38;4991978;28;20349;-51
2022/11/10 04:56:47;;;;;;;18.43;5.03;;;;;;;14.62;100.00;101795.78;4991163;28;20272;-49
2022/11/10 04:59:32;;;;;;;28.93;5.47;;;;;;;14.39;100.00;101785.28;4988690;28;20268;-48
2022/11/10 05:02:16;;;;;;;23.10;5.10;;;;;;;14.74;100.00;101775.34;4999626;28;20273;-50
2022/11/10 05:05:02;;;;;;;33.40;6.37;;;;;;;14.55;100.00;101786.84;4990607;28;20295;-49
2022/11/10 05:07:47;;;;;;;21.60;5.17;;;;;;;14.51;100.00;101782.88;4990936;28;20323;-52
2022/11/10 05:10:33;;;;;;;31.13;5.57;;;;;;;14.17;100.00;101786.19;4987909;28;20292;-50
2022/11/10 05:13:17;;;;;;;26.23;6.30;;;;;;;14.15;100.00;101798.16;4989829;28;20329;-48
2022/11/10 05:16:02;;;;;;;26.43;5.37;;;;;;;14.48;100.00;101784.94;4988448;28;20332;-50
2022/11/10 05:18:52;;;;;;;33.93;5.40;;;;;;;14.27;100.00;101798.47;4989918;28;20328;-53
2022/11/10 05:21:37;;;;;;;31.73;5.70;;;;;;;15.19;100.00;101815.31;4989241;28;20271;-50
2022/11/10 05:24:21;;;;;;;25.13;4.67;;;;;;;14.60;100.00;101812.13;4987004;28;20324;-47
2022/11/10 05:27:07;;;;;;;25.10;5.90;;;;;;;14.56;100.00;101812.75;4986551;28;20273;-49
2022/11/10 05:29:51;;;;;;;32.33;5.13;;;;;;;14.41;100.00;101813.66;4987317;28;20268;-49
2022/11/10 05:32:37;;;;;;;28.43;5.50;;;;;;;14.43;100.00;101814.31;4989210;28;20317;-51
2022/11/10 05:35:22;;;;;;;31.10;6.77;;;;;;;14.80;100.00;101810.63;4989258;28;20315;-50
2022/11/10 05:38:06;;;;;;;19.57;4.93;;;;;;;14.66;100.00;101823.16;4990657;28;20272;-52
2022/11/10 05:40:51;;;;;;;25.70;6.30;;;;;;;14.61;100.00;101821.03;4987537;28;20303;-49
2022/11/10 05:43:35;;;;;;;28.87;6.23;;;;;;;14.94;100.00;101817.69;4988881;28;20319;-49
2022/11/10 05:46:20;;;;;;;27.63;5.20;;;;;;;14.63;100.00;101813.59;4988586;28;20283;-50
2022/11/10 05:49:04;;;;;;;43.00;5.37;;;;;;;14.81;100.00;101821.16;4987259;28;20314;-48
2022/11/10 05:51:49;;;;;;;27.97;5.10;;;;;;;14.64;100.00;101831.41;4991252;28;20280;-52
2022/11/10 05:54:34;;;;;;;24.93;5.10;;;;;;;14.56;100.00;101828.88;4986115;28;20290;-50
2022/11/10 05:57:18;;;;;;;26.70;6.70;;;;;;;14.07;100.00;101825.22;5002458;28;20267;-48
2022/11/10 06:00:04;;;;;;;21.47;4.90;;;;;;;14.69;100.00;101830.81;4987880;28;20326;-48
2022/11/10 06:03:16;;;;;;;24.37;5.20;;;;;;;14.34;100.00;101832.47;4982912;28;20302;-50
2022/11/10 06:06:00;;;;;;;21.33;4.63;;;;;;;14.32;100.00;101828.31;4980179;28;20290;-51
2022/11/10 06:08:45;;;;;;;29.37;4.83;;;;;;;14.17;100.00;101836.47;4982005;28;20269;-52
2022/11/10 06:11:28;;;;;;;31.10;5.93;;;;;;;14.11;100.00;101838.09;4980440;28;20284;-51
2022/11/10 06:14:12;;;;;;;33.50;6.27;;;;;;;14.19;100.00;101851.38;4983240;28;20302;-50
2022/11/10 06:16:57;;;;;;;26.00;5.07;;;;;;;14.13;100.00;101845.94;4974992;28;20945;-50
2022/11/10 06:19:41;;;;;;;33.17;5.90;;;;;;;14.08;100.00;101860.00;4978328;28;20337;-47
2022/11/10 06:22:26;;;;;;;26.63;4.90;;;;;;;14.10;100.00;101863.31;4984260;28;20284;-51
2022/11/10 06:25:10;;;;;;;23.07;5.17;;;;;;;14.59;100.00;101858.09;4982290;28;20321;-48
2022/11/10 06:27:55;;;;;;;20.27;4.07;;;;;;;14.73;100.00;101862.53;4981827;28;20349;-52
2022/11/10 06:30:39;;;;;;;18.13;3.70;;;;;;;14.23;100.00;101867.13;4982977;28;20291;-50
2022/11/10 06:33:24;;;;;;;22.73;4.80;;;;;;;14.38;100.00;101869.72;4980535;28;20287;-50
2022/11/10 06:36:08;;;;;;;23.03;5.03;;;;;;;14.24;100.00;101884.94;4981637;28;20265;-51
2022/11/10 06:38:53;;;;;;;22.17;5.10;;;;;;;14.11;100.00;101893.72;4984087;28;20355;-56
2022/11/10 06:41:37;;;;;;;25.87;5.33;;;;;;;14.38;100.00;101892.09;4985991;28;20326;-52
2022/11/10 06:44:22;;;;;;;29.90;4.70;;;;;;;14.18;100.00;101898.16;4982895;28;20300;-55
2022/11/10 06:47:06;;;;;;;29.17;7.63;;;;;;;14.38;100.00;101902.88;4982099;28;20290;-53
2022/11/10 06:49:51;;;;;;;27.23;5.13;;;;;;;14.43;100.00;101915.75;4986864;28;20273;-54
2022/11/10 06:52:35;;;;;;;18.73;4.63;;;;;;;14.35;100.00;101919.41;4988392;28;20306;-53
2022/11/10 06:55:19;;;;;;;23.10;4.27;;;;;;;14.48;100.00;101921.38;4987754;28;20268;-52
2022/11/10 06:58:03;;;;;;;19.10;4.17;;;;;;;14.52;100.00;101927.19;4987448;28;20332;-51
2022/11/10 07:00:48;;;;;;;22.03;4.77;;;;;;;14.62;100.00;101920.44;4989456;28;20298;-51
2022/11/10 07:03:32;;;;;;;25.33;4.73;;;;;;;14.47;100.00;101928.59;4987196;28;20278;-55
2022/11/10 07:06:16;;;;;;;28.23;5.70;;;;;;;14.44;100.00;101934.38;4987880;28;20367;-49
2022/11/10 07:09:00;;;;;;;18.37;4.23;;;;;;;14.39;100.00;101930.59;4986248;28;20355;-49
2022/11/10 07:11:44;;;;;;;22.67;4.80;;;;;;;14.03;100.00;101943.09;4988381;28;20267;-48
2022/11/10 07:14:29;;;;;;;19.63;4.60;;;;;;;14.59;100.00;101952.31;4987114;28;20287;-51
2022/11/10 07:17:13;;;;;;;22.63;4.67;;;;;;;14.50;100.00;101959.69;4987130;28;20264;-52
2022/11/10 07:19:57;;;;;;;26.23;5.07;;;;;;;14.64;100.00;101968.72;4991056;28;20267;-53
2022/11/10 07:22:41;;;;;;;21.77;5.47;;;;;;;14.67;100.00;101976.38;4988658;28;20735;-51
2022/11/10 07:25:27;;;;;;;33.33;5.83;;;;;;;14.74;100.00;101982.69;4986643;28;20311;-49
2022/11/10 07:28:11;;;;;;;24.63;5.10;;;;;;;14.79;100.00;101983.97;4987137;28;20344;-47
2022/11/10 07:30:55;;;;;;;27.20;6.30;;;;;;;14.68;100.00;101971.84;4984169;28;20272;-52
2022/11/10 07:33:39;;;;;;;24.33;6.97;;;;;;;14.71;100.00;101979.56;4987025;28;20328;-53
2022/11/10 07:36:27;;;;;;;26.33;6.73;;;;;;;14.80;100.00;101982.94;4986135;28;20256;-52
2022/11/10 07:39:12;;;;;;;28.80;7.10;;;;;;;15.35;100.00;101985.78;4991065;28;20767;-50
2022/11/10 07:41:56;;;;;;;23.80;6.27;;;;;;;14.88;100.00;101986.34;4986535;28;20056;-53
2022/11/10 07:44:40;;;;;;;37.63;9.67;;;;;;;15.17;100.00;101991.69;4989310;28;20290;-51
2022/11/10 07:47:25;;;;;;;37.50;10.33;;;;;;;14.83;100.00;101986.06;4991696;28;20276;-52
2022/11/10 07:50:09;;;;;;;39.33;11.20;;;;;;;15.17;100.00;101989.84;4992866;28;21022;-48
2022/11/10 07:53:08;;;;;;;32.03;10.47;;;;;;;15.01;100.00;101992.81;4990295;28;20294;-52
2022/11/10 07:55:53;;;;;;;19.97;7.13;;;;;;;15.27;100.00;101991.31;4989187;28;20272;-53
2022/11/10 07:58:37;;;;;;;30.87;8.53;;;;;;;15.52;100.00;102002.47;4990542;28;20318;-54
2022/11/10 08:01:22;;;;;;;21.17;7.50;;;;;;;15.53;100.00;102012.22;4987067;28;20291;-52
2022/11/10 08:04:07;;;;;;;29.80;8.23;;;;;;;16.39;100.00;102007.31;4986865;28;20336;-53
2022/11/10 08:06:53;;;;;;;22.30;7.60;;;;;;;15.84;100.00;102018.97;4987623;28;20288;-52
2022/11/10 08:09:37;;;;;;;19.40;5.27;;;;;;;15.58;100.00;102025.09;4992957;28;20268;-49
2022/11/10 08:12:21;;;;;;;34.73;5.37;;;;;;;15.72;100.00;102023.28;4995954;28;20292;-50
2022/11/10 08:15:06;;;;;;;23.10;5.37;;;;;;;15.58;100.00;102028.59;4989579;28;20264;-54
2022/11/10 08:17:51;;;;;;;20.13;4.60;;;;;;;15.41;100.00;102024.56;4989371;28;20328;-52
2022/11/10 08:20:35;;;;;;;21.47;4.73;;;;;;;15.46;100.00;102016.75;4991065;28;20272;-52
2022/11/10 08:23:19;;;;;;;21.93;5.20;;;;;;;15.46;100.00;102024.84;4991291;28;20291;-52
2022/11/10 08:26:04;;;;;;;28.23;5.50;;;;;;;15.69;100.00;102015.59;4990851;28;20434;-55
2022/11/10 08:28:49;;;;;;;29.27;6.17;;;;;;;15.59;100.00;102018.66;4985349;28;20268;-52
2022/11/10 08:31:33;;;;;;;19.60;4.93;;;;;;;15.52;100.00;102017.78;4986851;28;20359;-52
2022/11/10 08:34:17;;;;;;;25.60;5.07;;;;;;;15.90;100.00;102033.56;4992889;28;20272;-52
2022/11/10 08:37:01;;;;;;;19.87;3.80;;;;;;;16.02;100.00;102041.88;4984418;28;20260;-53
2022/11/10 08:39:46;;;;;;;14.80;4.93;;;;;;;17.45;100.00;102050.72;4991044;28;20275;-52
2022/11/10 08:42:30;;;;;;;20.57;4.93;;;;;;;18.06;100.00;102055.91;4992207;28;20299;-51
2022/11/10 08:45:14;;;;;;;22.47;4.33;;;;;;;18.86;100.00;102053.69;4986800;28;20300;-50
2022/11/10 08:48:00;;;;;;;12.63;3.27;;;;;;;19.27;100.00;102054.22;4986712;28;20794;-51
2022/11/10 08:50:46;;;;;;;16.33;3.70;;;;;;;19.45;100.00;102065.06;4987177;28;20299;-53
2022/11/10 08:53:32;;;;;;;15.47;2.97;;;;;;;19.92;100.00;102064.53;4985104;28;20058;-50
2022/11/10 08:56:15;;;;;;;17.40;3.17;;;;;;;20.17;100.00;102068.19;4986075;28;20043;-53
2022/11/10 08:59:00;;;;;;;17.50;3.23;;;;;;;20.04;100.00;102082.75;4983327;28;20068;-50
2022/11/10 09:01:44;;;;;;;16.00;3.10;;;;;;;20.09;100.00;102073.94;4982149;28;20047;-54
2022/11/10 09:04:28;;;;;;;19.60;3.90;;;;;;;20.29;100.00;102077.22;4989282;28;20049;-53
2022/11/10 09:07:13;;;;;;;17.00;3.57;;;;;;;20.20;100.00;102084.03;4983677;28;20111;-54
2022/11/10 09:09:57;;;;;;;13.40;2.43;;;;;;;20.61;100.00;102085.09;4984729;28;20081;-52
2022/11/10 09:12:41;;;;;;;20.47;3.67;;;;;;;20.47;100.00;102092.63;4994921;28;20045;-52
2022/11/10 09:15:27;;;;;;;14.77;3.33;;;;;;;20.88;100.00;102098.31;4981204;28;20042;-49
2022/11/10 09:18:14;;;;;;;13.50;2.63;;;;;;;20.90;100.00;102101.63;4985010;28;20042;-53
2022/11/10 09:20:58;;;;;;;16.75;4.13;;;;;;;20.92;100.00;102095.94;4984615;28;20045;-50
2022/11/10 09:23:43;;;;;;;25.40;3.80;;;;;;;21.26;100.00;102103.50;4981261;28;20054;-54
2022/11/10 09:26:29;;;;;;;11.83;3.20;;;;;;;21.77;100.00;102101.94;4982034;28;20046;-52
2022/11/10 09:29:14;;;;;;;16.80;3.88;;;;;;;21.44;100.00;102100.66;4984158;28;20049;-52
2022/11/10 09:31:58;;;;;;;18.37;3.70;;;;;;;21.56;100.00;102106.09;4981623;28;20107;-50
2022/11/10 09:34:42;;;;;;;12.23;3.00;;;;;;;22.24;100.00;102118.38;4980296;28;20101;-53
2022/11/10 09:37:27;;;;;;;16.73;3.13;;;;;;;22.67;100.00;102114.28;4987169;28;20050;-54
2022/11/10 09:40:30;;;;;;;20.23;3.13;;;;;;;22.63;100.00;102126.75;4986346;28;20088;-51
2022/11/10 09:43:23;;;;;;;19.83;3.10;;;;;;;22.39;100.00;102105.06;4984405;28;20077;-52
2022/11/10 09:46:26;;;;;;;14.33;3.20;;;;;;;22.16;100.00;102109.53;4987674;28;20049;-54
2022/11/10 09:49:28;;;;;;;13.70;3.13;;;;;;;23.10;100.00;102106.50;4986492;28;20042;-51
2022/11/10 09:52:13;;;;;;;15.50;3.07;;;;;;;23.01;100.00;102125.19;4988331;28;20066;-50
2022/11/10 09:55:03;;;;;;;18.47;3.67;;;;;;;22.97;100.00;102129.50;4987159;28;20053;-49
2022/11/10 09:57:52;;;;;;;18.13;3.40;;;;;;;24.04;96.01;102127.75;4983860;28;20057;-50
2022/11/10 10:00:36;;;;;;;18.93;3.63;;;;;;;23.71;96.99;102137.69;4988307;28;20065;-52
2022/11/10 10:03:26;;;;;;;18.97;4.20;;;;;;;24.07;93.92;102146.34;4988042;28;20050;-52
2022/11/10 10:06:13;;;;;;;16.97;4.07;;;;;;;23.71;97.07;102157.63;4992303;28;20068;-48
2022/11/10 10:09:21;;;;;;;10.30;2.60;;;;;;;24.21;92.90;102182.31;4987653;28;20057;-51
2022/11/10 10:12:48;;;;;;;21.57;3.87;;;;;;;24.74;89.87;102171.66;4988962;28;20045;-50
2022/11/10 10:15:48;;;;;;;20.47;4.37;;;;;;;24.04;92.83;102174.19;4984482;28;20061;-51
2022/11/10 10:18:53;;;;;;;18.57;4.20;;;;;;;24.70;89.95;102178.75;4989432;28;20050;-50
2022/11/10 10:22:09;;;;;;;17.90;3.57;;;;;;;23.60;97.72;102164.84;4987132;28;20065;-54
2022/11/10 10:24:58;;;;;;;12.97;3.30;;;;;;;23.72;96.60;102172.94;4985485;28;20045;-51
2022/11/10 10:27:47;;;;;;;19.33;4.27;;;;;;;23.66;96.22;102184.88;4986672;28;20110;-48
2022/11/10 10:30:32;;;;;;;19.30;4.07;;;;;;;23.59;97.38;102178.75;4988368;28;20050;-52
2022/11/10 10:33:19;;;;;;;15.10;3.10;;;;;;;23.19;96.62;102192.34;4985692;28;20041;-49
2022/11/10 10:36:11;;;;;;;22.57;4.10;;;;;;;23.15;97.84;102203.97;4987514;28;20034;-50
2022/11/10 10:38:58;;;;;;;16.97;3.67;;;;;;;24.87;87.63;102222.41;4986773;28;20078;-51
2022/11/10 10:41:45;;;;;;;19.50;2.95;;;;;;;24.38;89.58;102208.75;4985350;28;20096;-51
2022/11/10 10:44:30;;;;;;;15.23;3.13;;;;;;;23.92;91.48;102215.25;4985719;28;20029;-54
2022/11/10 10:47:15;;;;;;;25.50;3.60;;;;;;;24.41;88.11;102216.44;4988087;28;20065;-53
2022/11/10 10:50:28;;;;;;;15.30;3.10;;;;;;;24.18;87.71;102213.69;4985695;28;20065;-49
2022/11/10 10:53:17;;;;;;;12.63;3.27;;;;;;;23.77;91.65;102200.31;4994373;28;20118;-54
2022/11/10 10:56:14;;;;;;;12.70;2.93;;;;;;;25.98;78.65;102210.06;4987916;28;20046;-51
2022/11/10 10:59:04;;;;;;;16.15;3.72;;;;;;;25.56;79.55;102214.47;4987149;28;20103;-51
2022/11/10 11:01:53;;;;;;;13.97;3.43;;;;;;;24.66;82.98;102207.66;4990265;28;20049;-52
2022/11/10 11:04:37;;;;;;;12.67;3.10;;;;;;;25.99;77.26;102200.75;4986213;28;20038;-52
2022/11/10 11:07:23;;;;;;;15.23;3.73;;;;;;;26.82;74.55;102200.16;4988617;28;20102;-53
2022/11/10 11:10:27;;;;;;;16.55;2.80;;;;;;;27.48;69.92;102204.00;4991294;28;20050;-51
2022/11/10 11:13:19;;;;;;;17.83;4.30;;;;;;;27.32;69.50;102206.78;4989035;28;20054;-51
2022/11/10 11:16:07;;;;;;;12.73;3.83;;;;;;;27.71;65.81;102219.09;4986879;28;20529;-52
2022/11/10 11:18:51;;;;;;;14.15;2.90;;;;;;;25.62;72.99;102199.75;4988535;28;20054;-50
2022/11/10 11:21:57;;;;;;;13.43;2.47;;;;;;;25.09;76.63;102218.78;4988843;28;20133;-47
2022/11/10 11:24:49;;;;;;;14.50;3.13;;;;;;;23.65;86.00;102216.00;4989116;28;20073;-48
2022/11/10 11:27:41;;;;;;;15.43;3.73;;;;;;;23.69;89.06;102222.59;4990152;28;20080;-50
2022/11/10 11:31:08;;;;;;;18.30;3.43;;;;;;;23.27;92.73;102221.13;4988835;28;20072;-52
2022/11/10 11:34:16;;;;;;;9.67;2.47;;;;;;;23.78;89.91;102226.53;4986587;28;20571;-54
2022/11/10 11:37:48;;;;;;;13.00;2.70;;;;;;;24.04;89.29;102228.84;4988898;28;20061;-49
2022/11/10 11:41:03;;;;;;;13.67;2.90;;;;;;;25.15;83.71;102239.63;4949395;29;20074;-52
2022/11/10 11:44:12;;;;;;;14.67;2.57;;;;;;;23.36;90.86;102239.84;4948041;29;20074;-49
2022/11/10 11:47:35;;;;;;;16.10;2.33;;;;;;;23.88;87.63;102253.19;4988725;28;20049;-55
2022/11/10 11:50:30;;;;;;;15.93;2.70;;;;;;;24.34;86.94;102261.19;4985783;28;20073;-47
2022/11/10 11:54:05;;;;;;;15.27;3.33;;;;;;;25.15;82.13;102285.34;4987379;28;20062;-51
2022/11/10 11:56:50;;;;;;;10.80;2.30;;;;;;;24.28;85.76;102272.31;4976927;28;20044;-52
2022/11/10 11:59:37;;;;;;;11.27;2.57;;;;;;;23.83;89.30;102276.84;4989984;28;20061;-50
2022/11/10 12:02:46;;;;;;;11.77;3.20;;;;;;;25.48;78.50;102280.72;4985267;28;20070;-52
2022/11/10 12:05:42;;;;;;;16.67;3.30;;;;;;;25.72;76.82;102274.84;4984400;28;20037;-53
2022/11/10 12:08:57;;;;;;;18.83;3.50;;;;;;;24.48;82.34;102278.03;4990143;28;20117;-52
2022/11/10 12:12:18;;;;;;;15.33;2.80;;;;;;;24.12;85.45;102263.91;4987520;28;20042;-53
2022/11/10 12:15:17;;;;;;;18.13;2.30;;;;;;;23.58;88.52;102273.50;4993450;28;20045;-55
2022/11/10 12:18:01;;;;;;;15.67;2.83;;;;;;;22.68;96.55;102257.72;4985641;28;20068;-52
2022/11/10 12:21:10;;;;;;;16.60;2.73;;;;;;;22.47;99.16;102253.72;4986646;28;20053;-51
2022/11/10 12:24:16;;;;;;;16.40;3.03;;;;;;;22.76;96.94;102256.50;4987732;28;20131;-48
2022/11/10 12:27:16;;;;;;;14.40;2.83;;;;;;;22.67;97.02;102274.31;4987418;28;20046;-50
2022/11/10 12:30:10;;;;;;;22.53;3.03;;;;;;;22.52;98.63;102269.38;4987340;28;20049;-49
2022/11/10 12:33:05;;;;;;;14.03;2.90;;;;;;;22.78;97.67;102266.06;4985495;28;20129;-51
2022/11/10 12:35:52;;;;;;;14.83;2.43;;;;;;;22.90;98.57;102271.47;4992695;28;20065;-53
2022/11/10 12:39:02;;;;;;;8.13;2.60;;;;;;;22.87;94.12;102282.06;4990376;28;20046;-54
2022/11/10 12:41:58;;;;;;;13.07;1.93;;;;;;;23.32;92.31;102275.81;4986896;28;20045;-51
2022/11/10 12:45:06;;;;;;;17.43;3.27;;;;;;;23.47;91.73;102282.59;4988279;28;20100;-49
2022/11/10 12:47:52;;;;;;;9.75;2.38;;;;;;;24.11;86.54;102273.19;4989012;28;20038;-51
2022/11/10 12:50:48;;;;;;;14.30;2.73;;;;;;;24.11;85.71;102278.66;4988412;28;20041;-49
2022/11/10 12:53:36;;;;;;;23.00;3.20;;;;;;;24.13;84.39;102281.97;4988247;28;20063;-49
2022/11/10 12:56:33;;;;;;;14.27;2.80;;;;;;;24.17;83.50;102298.69;4987914;28;20656;-52
2022/11/10 12:59:20;;;;;;;12.13;2.43;;;;;;;24.85;81.38;102287.50;4990823;28;20046;-52